sensor_id;sensor_type;location;lat;lon;timestamp;temperature;humidity
3626;DHT22;1827;50.534;8.316;2022-11-10T00:00:22;5.60;99.90
3626;DHT22;1827;50.534;8.316;2022-11-10T00:03:06;5.50;99.90
3626;DHT22;1827;50.534;8.316;2022-11-10T00:05:51;5.50;99.90
3626;DHT22;1827;50.534;8.316;2022-11-10T00:08:35;5.60;99.90
3626;DHT22;1827;50.534;8.316;2022-11-10T00:11:20;5.60;99.90
3626;DHT22;1827;50.534;8.316;2022-11-10T00:14:04;5.60;99.90
3626;DHT22;1827;50.534;8.316;2022-11-10T00:17:08;5.50;99.90
3626;DHT22;1827;50.534;8.316;2022-11-10T00:19:52;5.60;99.90
3626;DHT22;1827;50.534;8.316;2022-11-10T00:22:37;5.50;99.90
3626;DHT22;1827;50.534;8.316;2022-11-10T00:25:22;5.60;99.90
3626;DHT22;1827;50.534;8.316;2022-11-10T00:28:07;5.60;99.90
3626;DHT22;1827;50.534;8.316;2022-11-10T00:30:51;5.60;99.90
3626;DHT22;1827;50.534;8.316;2022-11-10T00:33:36;5.50;99.90
3626;DHT22;1827;50.534;8.316;2022-11-10T00:36:20;5.40;99.90
3626;DHT22;1827;50.534;8.316;2022-11-10T00:39:05;5.40;99.90
3626;DHT22;1827;50.534;8.316;2022-11-10T00:41:49;5.30;99.90
3626;DHT22;1827;50.534;8.316;2022-11-10T00:44:33;5.20;99.90
3626;DHT22;1827;50.534;8.316;2022-11-10T00:47:17;5.10;99.90
3626;DHT22;1827;50.534;8.316;2022-11-10T00:50:02;5.10;99.90
3626;DHT22;1827;50.534;8.316;2022-11-10T00:52:46;5.30;99.90
3626;DHT22;1827;50.534;8.316;2022-11-10T00:55:30;5.30;99.90
3626;DHT22;1827;50.534;8.316;2022-11-10T00:58:14;5.20;99.90
3626;DHT22;1827;50.534;8.316;2022-11-10T01:00:59;5.00;99.90
3626;DHT22;1827;50.534;8.316;2022-11-10T01:03:44;5.00;99.90
3626;DHT22;1827;50.534;8.316;2022-11-10T01:06:28;4.90;99.90
3626;DHT22;1827;50.534;8.316;2022-11-10T01:09:13;4.80;99.90
3626;DHT22;1827;50.534;8.316;2022-11-10T01:11:58;4.80;99.90
3626;DHT22;1827;50.534;8.316;2022-11-10T01:14:42;4.80;99.90
3626;DHT22;1827;50.534;8.316;2022-11-10T01:17:28;4.80;99.90
3626;DHT22;1827;50.534;8.316;2022-11-10T01:20:12;4.80;99.90
3626;DHT22;1827;50.534;8.316;2022-11-10T01:22:57;4.80;99.90
3626;DHT22;1827;50.534;8.316;2022-11-10T01:25:41;4.80;99.90
3626;DHT22;1827;50.534;8.316;2022-11-10T01:28:25;4.70;99.90
3626;DHT22;1827;50.534;8.316;2022-11-10T01:31:11;4.80;99.90
3626;DHT22;1827;50.534;8.316;2022-11-10T01:33:57;4.70;99.90
3626;DHT22;1827;50.534;8.316;2022-11-10T01:36:42;4.60;99.90
3626;DHT22;1827;50.534;8.316;2022-11-10T01:39:26;4.60;99.90
3626;DHT22;1827;50.534;8.316;2022-11-10T01:42:10;4.50;99.90
3626;DHT22;1827;50.534;8.316;2022-11-10T01:47:58;4.40;99.90
3626;DHT22;1827;50.534;8.316;2022-11-10T01:50:44;4.40;99.90
3626;DHT22;1827;50.534;8.316;2022-11-10T01:53:30;4.30;99.90
3626;DHT22;1827;50.534;8.316;2022-11-10T01:56:15;4.30;99.90
3626;DHT22;1827;50.534;8.316;2022-11-10T01:59:02;4.30;99.90
3626;DHT22;1827;50.534;8.316;2022-11-10T02:01:46;4.20;99.90
3626;DHT22;1827;50.534;8.316;2022-11-10T02:04:31;4.20;99.90
3626;DHT22;1827;50.534;8.316;2022-11-10T02:07:16;4.20;99.90
3626;DHT22;1827;50.534;8.316;2022-11-10T02:10:01;4.10;99.90
3626;DHT22;1827;50.534;8.316;2022-11-10T02:12:45;4.20;99.90
3626;DHT22;1827;50.534;8.316;2022-11-10T02:15:30;4.10;99.90
3626;DHT22;1827;50.534;8.316;2022-11-10T02:18:14;4.00;99.90
3626;DHT22;1827;50.534;8.316;2022-11-10T02:20:58;4.00;99.90
3626;DHT22;1827;50.534;8.316;2022-11-10T02:23:47;4.00;99.90
3626;DHT22;1827;50.534;8.316;2022-11-10T02:26:31;4.00;99.90
3626;DHT22;1827;50.534;8.316;2022-11-10T02:29:16;4.00;99.90
3626;DHT22;1827;50.534;8.316;2022-11-10T02:32:00;3.90;99.90
3626;DHT22;1827;50.534;8.316;2022-11-10T02:34:44;3.90;99.90
3626;DHT22;1827;50.534;8.316;2022-11-10T02:37:28;3.90;99.90
3626;DHT22;1827;50.534;8.316;2022-11-10T02:40:12;3.90;99.90
3626;DHT22;1827;50.534;8.316;2022-11-10T02:42:57;3.90;99.90
3626;DHT22;1827;50.534;8.316;2022-11-10T02:45:41;3.90;99.90
3626;DHT22;1827;50.534;8.316;2022-11-10T02:48:29;3.80;99.90
3626;DHT22;1827;50.534;8.316;2022-11-10T02:51:13;3.80;99.90
3626;DHT22;1827;50.534;8.316;2022-11-10T02:53:57;3.80;99.90
3626;DHT22;1827;50.534;8.316;2022-11-10T02:56:41;3.80;99.90
3626;DHT22;1827;50.534;8.316;2022-11-10T02:59:26;3.80;99.90
3626;DHT22;1827;50.534;8.316;2022-11-10T03:02:10;3.90;99.90
3626;DHT22;1827;50.534;8.316;2022-11-10T03:04:54;3.90;99.90
3626;DHT22;1827;50.534;8.316;2022-11-10T03:07:38;3.80;99.90
3626;DHT22;1827;50.534;8.316;2022-11-10T03:10:23;3.80;99.90
3626;DHT22;1827;50.534;8.316;2022-11-10T03:13:07;3.80;99.90
3626;DHT22;1827;50.534;8.316;2022-11-10T03:15:52;3.90;99.90
3626;DHT22;1827;50.534;8.316;2022-11-10T03:18:36;3.90;99.90
3626;DHT22;1827;50.534;8.316;2022-11-10T03:21:20;3.90;99.90
3626;DHT22;1827;50.534;8.316;2022-11-10T03:24:04;3.90;99.90
3626;DHT22;1827;50.534;8.316;2022-11-10T03:26:48;4.00;99.90
3626;DHT22;1827;50.534;8.316;2022-11-10T03:29:33;4.10;99.90
3626;DHT22;1827;50.534;8.316;2022-11-10T03:32:17;3.90;99.90
3626;DHT22;1827;50.534;8.316;2022-11-10T03:35:01;3.80;99.90
3626;DHT22;1827;50.534;8.316;2022-11-10T03:37:45;3.70;99.90
3626;DHT22;1827;50.534;8.316;2022-11-10T03:40:30;3.80;99.90
3626;DHT22;1827;50.534;8.316;2022-11-10T03:43:14;3.90;99.90
3626;DHT22;1827;50.534;8.316;2022-11-10T03:45:59;3.90;99.90
3626;DHT22;1827;50.534;8.316;2022-11-10T03:48:43;3.80;99.90
3626;DHT22;1827;50.534;8.316;2022-11-10T03:51:27;3.80;99.90
3626;DHT22;1827;50.534;8.316;2022-11-10T03:54:11;3.70;99.90
3626;DHT22;1827;50.534;8.316;2022-11-10T03:56:56;3.70;99.90
3626;DHT22;1827;50.534;8.316;2022-11-10T03:59:40;3.70;99.90
3626;DHT22;1827;50.534;8.316;2022-11-10T04:02:24;3.70;99.90
3626;DHT22;1827;50.534;8.316;2022-11-10T04:05:09;3.70;99.90
3626;DHT22;1827;50.534;8.316;2022-11-10T04:08:13;3.70;99.90
3626;DHT22;1827;50.534;8.316;2022-11-10T04:11:16;3.70;99.90
3626;DHT22;1827;50.534;8.316;2022-11-10T04:14:21;3.80;99.90
3626;DHT22;1827;50.534;8.316;2022-11-10T04:17:24;3.60;99.90
3626;DHT22;1827;50.534;8.316;2022-11-10T04:20:08;3.50;99.90
3626;DHT22;1827;50.534;8.316;2022-11-10T04:22:53;3.40;99.90
3626;DHT22;1827;50.534;8.316;2022-11-10T04:26:00;3.40;99.90
3626;DHT22;1827;50.534;8.316;2022-11-10T04:29:04;3.30;99.90
3626;DHT22;1827;50.534;8.316;2022-11-10T04:31:49;3.20;99.90
3626;DHT22;1827;50.534;8.316;2022-11-10T04:34:33;3.40;99.90
3626;DHT22;1827;50.534;8.316;2022-11-10T04:37:17;3.30;99.90
3626;DHT22;1827;50.534;8.316;2022-11-10T04:40:02;3.20;99.90
3626;DHT22;1827;50.534;8.316;2022-11-10T04:42:46;3.20;99.90
3626;DHT22;1827;50.534;8.316;2022-11-10T04:45:31;3.20;99.90
3626;DHT22;1827;50.534;8.316;2022-11-10T04:48:15;3.20;99.90
3626;DHT22;1827;50.534;8.316;2022-11-10T04:51:03;3.30;99.90
3626;DHT22;1827;50.534;8.316;2022-11-10T04:53:48;3.30;99.90
3626;DHT22;1827;50.534;8.316;2022-11-10T04:56:32;3.30;99.90
3626;DHT22;1827;50.534;8.316;2022-11-10T04:59:17;3.50;99.90
3626;DHT22;1827;50.534;8.316;2022-11-10T05:02:02;3.50;99.90
3626;DHT22;1827;50.534;8.316;2022-11-10T05:04:46;3.50;99.90
3626;DHT22;1827;50.534;8.316;2022-11-10T05:07:30;3.50;99.90
3626;DHT22;1827;50.534;8.316;2022-11-10T05:10:15;3.50;99.90
3626;DHT22;1827;50.534;8.316;2022-11-10T05:12:59;3.50;99.90
3626;DHT22;1827;50.534;8.316;2022-11-10T05:15:44;3.40;99.90
3626;DHT22;1827;50.534;8.316;2022-11-10T05:18:28;3.40;99.90
3626;DHT22;1827;50.534;8.316;2022-11-10T05:21:12;3.40;99.90
3626;DHT22;1827;50.534;8.316;2022-11-10T05:23:56;3.40;99.90
3626;DHT22;1827;50.534;8.316;2022-11-10T05:26:41;3.40;99.90
3626;DHT22;1827;50.534;8.316;2022-11-10T05:29:25;3.30;99.90
3626;DHT22;1827;50.534;8.316;2022-11-10T05:32:09;3.30;99.90
3626;DHT22;1827;50.534;8.316;2022-11-10T05:34:53;3.30;99.90
3626;DHT22;1827;50.534;8.316;2022-11-10T05:37:38;3.30;99.90
3626;DHT22;1827;50.534;8.316;2022-11-10T05:40:22;3.30;99.90
3626;DHT22;1827;50.534;8.316;2022-11-10T05:43:06;3.30;99.90
3626;DHT22;1827;50.534;8.316;2022-11-10T05:45:51;3.30;99.90
3626;DHT22;1827;50.534;8.316;2022-11-10T05:48:35;3.20;99.90
3626;DHT22;1827;50.534;8.316;2022-11-10T05:51:19;3.20;99.90
3626;DHT22;1827;50.534;8.316;2022-11-10T05:54:03;3.10;99.90
3626;DHT22;1827;50.534;8.316;2022-11-10T05:56:47;3.10;99.90
3626;DHT22;1827;50.534;8.316;2022-11-10T05:59:32;3.20;99.90
3626;DHT22;1827;50.534;8.316;2022-11-10T06:02:16;3.10;99.90
3626;DHT22;1827;50.534;8.316;2022-11-10T06:05:00;3.10;99.90
3626;DHT22;1827;50.534;8.316;2022-11-10T06:07:45;3.30;99.90
3626;DHT22;1827;50.534;8.316;2022-11-10T06:10:29;3.10;99.90
3626;DHT22;1827;50.534;8.316;2022-11-10T06:13:13;3.00;99.90
3626;DHT22;1827;50.534;8.316;2022-11-10T06:15:57;3.00;99.90
3626;DHT22;1827;50.534;8.316;2022-11-10T06:18:42;2.90;99.90
3626;DHT22;1827;50.534;8.316;2022-11-10T06:21:26;2.90;99.90
3626;DHT22;1827;50.534;8.316;2022-11-10T06:24:10;2.90;99.90
3626;DHT22;1827;50.534;8.316;2022-11-10T06:26:54;2.80;99.90
3626;DHT22;1827;50.534;8.316;2022-11-10T06:29:39;2.80;99.90
3626;DHT22;1827;50.534;8.316;2022-11-10T06:32:23;2.80;99.90
3626;DHT22;1827;50.534;8.316;2022-11-10T06:35:07;2.80;99.90
3626;DHT22;1827;50.534;8.316;2022-11-10T06:37:59;2.80;99.90
3626;DHT22;1827;50.534;8.316;2022-11-10T06:40:43;2.80;99.90
3626;DHT22;1827;50.534;8.316;2022-11-10T06:43:27;2.70;99.90
3626;DHT22;1827;50.534;8.316;2022-11-10T06:46:11;2.80;99.90
3626;DHT22;1827;50.534;8.316;2022-11-10T06:48:56;2.80;99.90
3626;DHT22;1827;50.534;8.316;2022-11-10T06:51:40;2.80;99.90
3626;DHT22;1827;50.534;8.316;2022-11-10T06:54:24;2.80;99.90
3626;DHT22;1827;50.534;8.316;2022-11-10T06:57:09;2.90;99.90
3626;DHT22;1827;50.534;8.316;2022-11-10T06:59:53;2.90;99.90
3626;DHT22;1827;50.534;8.316;2022-11-10T07:02:37;2.90;99.90
3626;DHT22;1827;50.534;8.316;2022-11-10T07:05:21;2.90;99.90
3626;DHT22;1827;50.534;8.316;2022-11-10T07:08:13;3.00;99.90
3626;DHT22;1827;50.534;8.316;2022-11-10T07:10:58;3.10;99.90
3626;DHT22;1827;50.534;8.316;2022-11-10T07:13:43;3.20;99.90
3626;DHT22;1827;50.534;8.316;2022-11-10T07:16:27;3.30;99.90
3626;DHT22;1827;50.534;8.316;2022-11-10T07:19:11;3.50;99.90
3626;DHT22;1827;50.534;8.316;2022-11-10T07:21:55;3.60;99.90
3626;DHT22;1827;50.534;8.316;2022-11-10T07:24:39;3.70;99.90
3626;DHT22;1827;50.534;8.316;2022-11-10T07:27:24;3.90;99.90
3626;DHT22;1827;50.534;8.316;2022-11-10T07:30:08;4.10;99.90
3626;DHT22;1827;50.534;8.316;2022-11-10T07:32:56;4.10;99.90
3626;DHT22;1827;50.534;8.316;2022-11-10T07:35:40;4.20;99.90
3626;DHT22;1827;50.534;8.316;2022-11-10T07:38:25;4.40;99.90
3626;DHT22;1827;50.534;8.316;2022-11-10T07:41:09;4.50;99.90
3626;DHT22;1827;50.534;8.316;2022-11-10T07:43:53;4.60;99.90
3626;DHT22;1827;50.534;8.316;2022-11-10T07:46:38;4.70;99.90
3626;DHT22;1827;50.534;8.316;2022-11-10T07:49:22;4.60;99.90
3626;DHT22;1827;50.534;8.316;2022-11-10T07:52:06;4.70;99.90
3626;DHT22;1827;50.534;8.316;2022-11-10T07:54:50;4.70;99.90
3626;DHT22;1827;50.534;8.316;2022-11-10T07:57:35;4.90;99.90
3626;DHT22;1827;50.534;8.316;2022-11-10T08:00:19;4.80;99.90
3626;DHT22;1827;50.534;8.316;2022-11-10T08:03:04;5.00;99.90
3626;DHT22;1827;50.534;8.316;2022-11-10T08:05:49;5.00;99.90
3626;DHT22;1827;50.534;8.316;2022-11-10T08:08:33;5.10;99.90
3626;DHT22;1827;50.534;8.316;2022-11-10T08:11:18;5.20;99.90
3626;DHT22;1827;50.534;8.316;2022-11-10T08:14:02;5.50;99.90
3626;DHT22;1827;50.534;8.316;2022-11-10T08:16:47;5.70;99.90
3626;DHT22;1827;50.534;8.316;2022-11-10T08:19:31;5.90;99.90
3626;DHT22;1827;50.534;8.316;2022-11-10T08:22:15;6.10;99.90
3626;DHT22;1827;50.534;8.316;2022-11-10T08:24:59;6.20;99.90
3626;DHT22;1827;50.534;8.316;2022-11-10T08:27:44;6.30;99.90
3626;DHT22;1827;50.534;8.316;2022-11-10T08:30:28;6.50;99.90
3626;DHT22;1827;50.534;8.316;2022-11-10T08:33:13;6.70;99.90
3626;DHT22;1827;50.534;8.316;2022-11-10T08:35:59;6.90;99.90
3626;DHT22;1827;50.534;8.316;2022-11-10T08:38:43;7.10;99.90
3626;DHT22;1827;50.534;8.316;2022-11-10T08:41:27;7.40;99.90
3626;DHT22;1827;50.534;8.316;2022-11-10T08:44:11;7.40;99.90
3626;DHT22;1827;50.534;8.316;2022-11-10T08:46:56;7.50;99.90
3626;DHT22;1827;50.534;8.316;2022-11-10T08:49:40;7.30;99.90
3626;DHT22;1827;50.534;8.316;2022-11-10T08:52:25;7.30;99.90
3626;DHT22;1827;50.534;8.316;2022-11-10T08:55:09;7.40;99.90
3626;DHT22;1827;50.534;8.316;2022-11-10T08:57:56;7.60;99.90
3626;DHT22;1827;50.534;8.316;2022-11-10T09:00:40;7.80;99.90
3626;DHT22;1827;50.534;8.316;2022-11-10T09:03:25;8.00;99.90
3626;DHT22;1827;50.534;8.316;2022-11-10T09:06:09;8.10;99.90
3626;DHT22;1827;50.534;8.316;2022-11-10T09:08:53;8.20;99.90
3626;DHT22;1827;50.534;8.316;2022-11-10T09:11:37;8.20;99.90
3626;DHT22;1827;50.534;8.316;2022-11-10T09:14:21;8.30;99.90
3626;DHT22;1827;50.534;8.316;2022-11-10T09:17:06;8.40;99.90
3626;DHT22;1827;50.534;8.316;2022-11-10T09:19:50;8.50;99.90
3626;DHT22;1827;50.534;8.316;2022-11-10T09:22:34;8.60;99.90
3626;DHT22;1827;50.534;8.316;2022-11-10T09:25:19;8.80;99.90
3626;DHT22;1827;50.534;8.316;2022-11-10T09:28:03;9.20;99.90
3626;DHT22;1827;50.534;8.316;2022-11-10T09:30:48;9.10;99.90
3626;DHT22;1827;50.534;8.316;2022-11-10T09:33:33;9.30;99.90
3626;DHT22;1827;50.534;8.316;2022-11-10T09:36:17;9.30;99.90
3626;DHT22;1827;50.534;8.316;2022-11-10T09:39:01;9.30;99.90
3626;DHT22;1827;50.534;8.316;2022-11-10T09:41:46;9.40;99.90
3626;DHT22;1827;50.534;8.316;2022-11-10T09:44:41;9.50;99.90
3626;DHT22;1827;50.534;8.316;2022-11-10T09:47:35;9.70;99.90
3626;DHT22;1827;50.534;8.316;2022-11-10T09:50:26;9.90;99.90
3626;DHT22;1827;50.534;8.316;2022-11-10T09:53:14;10.00;99.90
3626;DHT22;1827;50.534;8.316;2022-11-10T09:56:03;10.10;99.90
3626;DHT22;1827;50.534;8.316;2022-11-10T09:58:48;10.20;99.90
3626;DHT22;1827;50.534;8.316;2022-11-10T10:01:34;10.30;99.90
3626;DHT22;1827;50.534;8.316;2022-11-10T10:07:46;10.50;99.90
3626;DHT22;1827;50.534;8.316;2022-11-10T10:25:00;10.90;99.90
3626;DHT22;1827;50.534;8.316;2022-11-10T10:27:47;11.00;99.90
3626;DHT22;1827;50.534;8.316;2022-11-10T10:30:33;10.90;99.90
3626;DHT22;1827;50.534;8.316;2022-11-10T10:33:18;10.80;99.90
3626;DHT22;1827;50.534;8.316;2022-11-10T10:36:05;11.00;99.90
3626;DHT22;1827;50.534;8.316;2022-11-10T10:38:54;10.90;99.90
3626;DHT22;1827;50.534;8.316;2022-11-10T10:41:40;11.10;99.90
3626;DHT22;1827;50.534;8.316;2022-11-10T10:44:25;11.10;99.90
3626;DHT22;1827;50.534;8.316;2022-11-10T10:47:10;11.10;99.90
3626;DHT22;1827;50.534;8.316;2022-11-10T10:49:58;11.10;99.90
3626;DHT22;1827;50.534;8.316;2022-11-10T10:56:04;11.30;99.90
3626;DHT22;1827;50.534;8.316;2022-11-10T10:58:53;11.40;99.90
3626;DHT22;1827;50.534;8.316;2022-11-10T11:01:37;11.40;99.90
3626;DHT22;1827;50.534;8.316;2022-11-10T11:04:41;11.40;99.90
3626;DHT22;1827;50.534;8.316;2022-11-10T11:07:25;11.70;99.90
3626;DHT22;1827;50.534;8.316;2022-11-10T11:10:16;11.80;99.90
3626;DHT22;1827;50.534;8.316;2022-11-10T11:16:05;11.80;99.90
3626;DHT22;1827;50.534;8.316;2022-11-10T11:18:51;11.80;99.90
3626;DHT22;1827;50.534;8.316;2022-11-10T11:21:54;11.90;99.90
3626;DHT22;1827;50.534;8.316;2022-11-10T11:27:45;12.30;99.90
3626;DHT22;1827;50.534;8.316;2022-11-10T11:33:26;12.40;99.90
3626;DHT22;1827;50.534;8.316;2022-11-10T11:36:17;12.30;99.90
3626;DHT22;1827;50.534;8.316;2022-11-10T11:45:02;12.60;99.90
3626;DHT22;1827;50.534;8.316;2022-11-10T11:50:47;13.00;99.90
3626;DHT22;1827;50.534;8.316;2022-11-10T11:56:25;13.00;99.90
3626;DHT22;1827;50.534;8.316;2022-11-10T11:59:34;13.00;99.90
3626;DHT22;1827;50.534;8.316;2022-11-10T12:05:44;13.00;99.90
3626;DHT22;1827;50.534;8.316;2022-11-10T12:08:12;13.10;99.90
3626;DHT22;1827;50.534;8.316;2022-11-10T12:16:38;13.20;99.90
3626;DHT22;1827;50.534;8.316;2022-11-10T12:22:11;13.10;99.90
3626;DHT22;1827;50.534;8.316;2022-11-10T12:27:52;13.10;99.90
3626;DHT22;1827;50.534;8.316;2022-11-10T12:30:38;13.20;99.90
3626;DHT22;1827;50.534;8.316;2022-11-10T12:33:34;13.20;99.90
3626;DHT22;1827;50.534;8.316;2022-11-10T12:36:19;13.00;99.90
3626;DHT22;1827;50.534;8.316;2022-11-10T12:39:16;13.00;99.90
3626;DHT22;1827;50.534;8.316;2022-11-10T12:42:02;13.00;99.90
3626;DHT22;1827;50.534;8.316;2022-11-10T12:47:38;13.10;99.90
3626;DHT22;1827;50.534;8.316;2022-11-10T12:53:30;13.40;99.90
3626;DHT22;1827;50.534;8.316;2022-11-10T12:56:20;13.30;99.90
3626;DHT22;1827;50.534;8.316;2022-11-10T13:02:24;13.20;99.90
3626;DHT22;1827;50.534;8.316;2022-11-10T13:08:04;13.30;99.90
3626;DHT22;1827;50.534;8.316;2022-11-10T13:10:51;13.20;99.90
3626;DHT22;1827;50.534;8.316;2022-11-10T13:13:46;13.10;99.90
3626;DHT22;1827;50.534;8.316;2022-11-10T13:22:19;13.20;99.90
3626;DHT22;1827;50.534;8.316;2022-11-10T13:28:14;13.30;99.90
3626;DHT22;1827;50.534;8.316;2022-11-10T13:30:58;13.20;99.90
3626;DHT22;1827;50.534;8.316;2022-11-10T13:33:51;13.20;99.90
3626;DHT22;1827;50.534;8.316;2022-11-10T13:36:47;13.20;99.90
3626;DHT22;1827;50.534;8.316;2022-11-10T13:39:32;13.20;99.90
3626;DHT22;1827;50.534;8.316;2022-11-10T13:42:17;13.20;99.90
3626;DHT22;1827;50.534;8.316;2022-11-10T13:51:06;13.30;99.90
3626;DHT22;1827;50.534;8.316;2022-11-10T13:59:29;13.20;99.90
3626;DHT22;1827;50.534;8.316;2022-11-10T14:08:21;13.10;99.90
3626;DHT22;1827;50.534;8.316;2022-11-10T14:17:18;13.10;99.90
3626;DHT22;1827;50.534;8.316;2022-11-10T14:20:03;13.00;99.90
3626;DHT22;1827;50.534;8.316;2022-11-10T14:22:48;13.00;99.90
3626;DHT22;1827;50.534;8.316;2022-11-10T14:25:37;13.00;99.90
3626;DHT22;1827;50.534;8.316;2022-11-10T14:31:20;12.90;99.90
3626;DHT22;1827;50.534;8.316;2022-11-10T14:34:11;12.90;99.90
3626;DHT22;1827;50.534;8.316;2022-11-10T14:36:56;12.80;99.90
3626;DHT22;1827;50.534;8.316;2022-11-10T14:39:41;12.90;99.90
3626;DHT22;1827;50.534;8.316;2022-11-10T14:42:26;12.80;99.90
3626;DHT22;1827;50.534;8.316;2022-11-10T14:45:15;12.80;99.90
3626;DHT22;1827;50.534;8.316;2022-11-10T14:48:01;12.80;99.90
3626;DHT22;1827;50.534;8.316;2022-11-10T14:50:45;12.70;99.90
3626;DHT22;1827;50.534;8.316;2022-11-10T14:53:34;12.60;99.90
3626;DHT22;1827;50.534;8.316;2022-11-10T14:56:52;12.60;99.90
3626;DHT22;1827;50.534;8.316;2022-11-10T14:59:30;12.50;99.90
3626;DHT22;1827;50.534;8.316;2022-11-10T15:02:16;12.40;99.90
3626;DHT22;1827;50.534;8.316;2022-11-10T15:05:01;12.30;99.90
3626;DHT22;1827;50.534;8.316;2022-11-10T15:07:46;12.30;99.90
3626;DHT22;1827;50.534;8.316;2022-11-10T15:16:26;12.10;99.90
3626;DHT22;1827;50.534;8.316;2022-11-10T15:24:54;11.80;99.90
3626;DHT22;1827;50.534;8.316;2022-11-10T15:27:39;11.70;99.90
3626;DHT22;1827;50.534;8.316;2022-11-10T15:30:23;11.60;99.90
3626;DHT22;1827;50.534;8.316;2022-11-10T15:33:08;11.50;99.90
3626;DHT22;1827;50.534;8.316;2022-11-10T15:35:54;11.50;99.90
3626;DHT22;1827;50.534;8.316;2022-11-10T15:38:38;11.30;99.90
3626;DHT22;1827;50.534;8.316;2022-11-10T15:41:22;11.30;99.90
3626;DHT22;1827;50.534;8.316;2022-11-10T15:44:20;11.20;99.90
3626;DHT22;1827;50.534;8.316;2022-11-10T15:47:05;11.10;99.90
3626;DHT22;1827;50.534;8.316;2022-11-10T15:49:49;11.00;99.90
3626;DHT22;1827;50.534;8.316;2022-11-10T15:52:33;10.90;99.90
3626;DHT22;1827;50.534;8.316;2022-11-10T15:55:21;10.60;99.90
3626;DHT22;1827;50.534;8.316;2022-11-10T15:58:19;10.50;99.90
3626;DHT22;1827;50.534;8.316;2022-11-10T16:01:03;10.50;99.90
3626;DHT22;1827;50.534;8.316;2022-11-10T16:03:47;10.40;99.90
3626;DHT22;1827;50.534;8.316;2022-11-10T16:06:31;10.30;99.90
3626;DHT22;1827;50.534;8.316;2022-11-10T16:09:15;10.20;99.90
3626;DHT22;1827;50.534;8.316;2022-11-10T16:12:00;10.20;99.90
3626;DHT22;1827;50.534;8.316;2022-11-10T16:14:45;10.10;99.90
3626;DHT22;1827;50.534;8.316;2022-11-10T16:17:30;10.10;99.90
3626;DHT22;1827;50.534;8.316;2022-11-10T16:20:14;9.80;99.90
3626;DHT22;1827;50.534;8.316;2022-11-10T16:22:58;9.70;99.90
3626;DHT22;1827;50.534;8.316;2022-11-10T16:25:43;9.60;99.90
3626;DHT22;1827;50.534;8.316;2022-11-10T16:28:28;9.60;99.90
3626;DHT22;1827;50.534;8.316;2022-11-10T16:31:13;9.50;99.90
3626;DHT22;1827;50.534;8.316;2022-11-10T16:33:58;9.40;99.90
3626;DHT22;1827;50.534;8.316;2022-11-10T16:36:42;9.30;99.90
3626;DHT22;1827;50.534;8.316;2022-11-10T16:39:29;9.20;99.90
3626;DHT22;1827;50.534;8.316;2022-11-10T16:42:13;9.20;99.90
3626;DHT22;1827;50.534;8.316;2022-11-10T16:44:57;9.10;99.90
3626;DHT22;1827;50.534;8.316;2022-11-10T16:47:42;9.10;99.90
3626;DHT22;1827;50.534;8.316;2022-11-10T16:50:31;9.10;99.90
3626;DHT22;1827;50.534;8.316;2022-11-10T16:53:16;9.00;99.90
3626;DHT22;1827;50.534;8.316;2022-11-10T16:56:00;9.00;99.90
3626;DHT22;1827;50.534;8.316;2022-11-10T16:58:45;8.90;99.90
3626;DHT22;1827;50.534;8.316;2022-11-10T17:01:30;8.90;99.90
3626;DHT22;1827;50.534;8.316;2022-11-10T17:04:14;8.90;99.90
3626;DHT22;1827;50.534;8.316;2022-11-10T17:06:59;8.80;99.90
3626;DHT22;1827;50.534;8.316;2022-11-10T17:09:43;8.80;99.90
3626;DHT22;1827;50.534;8.316;2022-11-10T17:12:27;8.70;99.90
3626;DHT22;1827;50.534;8.316;2022-11-10T17:15:12;8.70;99.90
3626;DHT22;1827;50.534;8.316;2022-11-10T17:17:58;8.60;99.90
3626;DHT22;1827;50.534;8.316;2022-11-10T17:20:45;8.50;99.90
3626;DHT22;1827;50.534;8.316;2022-11-10T17:23:30;8.40;99.90
3626;DHT22;1827;50.534;8.316;2022-11-10T17:26:15;8.30;99.90
3626;DHT22;1827;50.534;8.316;2022-11-10T17:29:00;8.30;99.90
3626;DHT22;1827;50.534;8.316;2022-11-10T17:31:45;8.20;99.90
3626;DHT22;1827;50.534;8.316;2022-11-10T17:34:29;8.10;99.90
3626;DHT22;1827;50.534;8.316;2022-11-10T17:37:13;8.00;99.90
3626;DHT22;1827;50.534;8.316;2022-11-10T17:39:57;7.90;99.90
3626;DHT22;1827;50.534;8.316;2022-11-10T17:42:42;7.80;99.90
3626;DHT22;1827;50.534;8.316;2022-11-10T17:45:27;7.60;99.90
3626;DHT22;1827;50.534;8.316;2022-11-10T17:48:13;7.60;99.90
3626;DHT22;1827;50.534;8.316;2022-11-10T17:50:57;7.50;99.90
3626;DHT22;1827;50.534;8.316;2022-11-10T17:53:43;7.40;99.90
3626;DHT22;1827;50.534;8.316;2022-11-10T17:56:27;7.30;99.90
3626;DHT22;1827;50.534;8.316;2022-11-10T17:59:12;7.30;99.90
3626;DHT22;1827;50.534;8.316;2022-11-10T18:01:57;7.40;99.90
3626;DHT22;1827;50.534;8.316;2022-11-10T18:04:43;7.40;99.90
3626;DHT22;1827;50.534;8.316;2022-11-10T18:07:28;7.30;99.90
3626;DHT22;1827;50.534;8.316;2022-11-10T18:10:12;7.10;99.90
3626;DHT22;1827;50.534;8.316;2022-11-10T18:12:57;7.00;99.90
3626;DHT22;1827;50.534;8.316;2022-11-10T18:15:41;6.90;99.90
3626;DHT22;1827;50.534;8.316;2022-11-10T18:18:26;6.90;99.90
3626;DHT22;1827;50.534;8.316;2022-11-10T18:21:10;6.70;99.90
3626;DHT22;1827;50.534;8.316;2022-11-10T18:23:55;6.70;99.90
3626;DHT22;1827;50.534;8.316;2022-11-10T18:26:39;6.70;99.90
3626;DHT22;1827;50.534;8.316;2022-11-10T18:29:23;6.70;99.90
3626;DHT22;1827;50.534;8.316;2022-11-10T18:32:07;6.80;99.90
3626;DHT22;1827;50.534;8.316;2022-11-10T18:34:52;6.80;99.90
3626;DHT22;1827;50.534;8.316;2022-11-10T18:37:36;6.60;99.90
3626;DHT22;1827;50.534;8.316;2022-11-10T18:40:20;6.60;99.90
3626;DHT22;1827;50.534;8.316;2022-11-10T18:43:05;6.70;99.90
3626;DHT22;1827;50.534;8.316;2022-11-10T18:45:52;6.50;99.90
3626;DHT22;1827;50.534;8.316;2022-11-10T18:48:37;6.30;99.90
3626;DHT22;1827;50.534;8.316;2022-11-10T18:51:21;6.20;99.90
3626;DHT22;1827;50.534;8.316;2022-11-10T18:54:05;6.20;99.90
3626;DHT22;1827;50.534;8.316;2022-11-10T18:56:50;6.00;99.90
3626;DHT22;1827;50.534;8.316;2022-11-10T18:59:34;5.90;99.90
3626;DHT22;1827;50.534;8.316;2022-11-10T19:02:18;5.90;99.90
3626;DHT22;1827;50.534;8.316;2022-11-10T19:05:03;6.00;99.90
3626;DHT22;1827;50.534;8.316;2022-11-10T19:07:47;6.00;99.90
3626;DHT22;1827;50.534;8.316;2022-11-10T19:10:31;5.90;99.90
3626;DHT22;1827;50.534;8.316;2022-11-10T19:13:15;5.80;99.90
3626;DHT22;1827;50.534;8.316;2022-11-10T19:16:07;5.70;99.90
3626;DHT22;1827;50.534;8.316;2022-11-10T19:18:52;5.70;99.90
3626;DHT22;1827;50.534;8.316;2022-11-10T19:21:36;5.60;99.90
3626;DHT22;1827;50.534;8.316;2022-11-10T19:24:20;5.60;99.90
3626;DHT22;1827;50.534;8.316;2022-11-10T19:27:05;5.50;99.90
3626;DHT22;1827;50.534;8.316;2022-11-10T19:29:50;5.40;99.90
3626;DHT22;1827;50.534;8.316;2022-11-10T19:32:34;5.30;99.90
3626;DHT22;1827;50.534;8.316;2022-11-10T19:35:19;5.40;99.90
3626;DHT22;1827;50.534;8.316;2022-11-10T19:38:03;5.30;99.90
3626;DHT22;1827;50.534;8.316;2022-11-10T19:40:47;5.20;99.90
3626;DHT22;1827;50.534;8.316;2022-11-10T19:43:31;5.10;99.90
3626;DHT22;1827;50.534;8.316;2022-11-10T19:46:18;5.30;99.90
3626;DHT22;1827;50.534;8.316;2022-11-10T19:49:02;5.30;99.90
3626;DHT22;1827;50.534;8.316;2022-11-10T19:51:50;5.20;99.90
3626;DHT22;1827;50.534;8.316;2022-11-10T19:54:34;5.30;99.90
3626;DHT22;1827;50.534;8.316;2022-11-10T19:57:18;5.20;99.90
3626;DHT22;1827;50.534;8.316;2022-11-10T20:00:03;5.20;99.90
3626;DHT22;1827;50.534;8.316;2022-11-10T20:02:47;5.10;99.90
3626;DHT22;1827;50.534;8.316;2022-11-10T20:05:31;5.00;99.90
3626;DHT22;1827;50.534;8.316;2022-11-10T20:08:16;5.00;99.90
3626;DHT22;1827;50.534;8.316;2022-11-10T20:11:01;4.90;99.90
3626;DHT22;1827;50.534;8.316;2022-11-10T20:13:46;4.90;99.90